Wetterdaten: Woche 17.08.09 - 23.08.09 (KW34)
Datum Zeit Temp. A. Feuchte A. Luftdruck Regen Wind Richtung Taupunkt Windchill Windben
17.08.2009 00:00 21,0 C 80 % 1015,1 hPa 0,0 l/m 0,3 km/h N 17,4 C 21,0 C 3,6 km/h
17.08.2009 01:00 20,6 C 80 % 1014,8 hPa 0,0 l/m 0,2 km/h N 17,1 C 20,6 C 2,0 km/h
17.08.2009 02:00 20,1 C 82 % 1014,5 hPa 0,0 l/m 0,1 km/h N 16,9 C 20,1 C 2,8 km/h
17.08.2009 03:00 20,2 C 81 % 1014,2 hPa 0,0 l/m 0,4 km/h N 16,8 C 20,2 C 4,4 km/h
17.08.2009 04:00 20,3 C 78 % 1013,9 hPa 0,0 l/m 0,7 km/h N 16,4 C 20,3 C 6,0 km/h
17.08.2009 05:00 18,7 C 84 % 1014,0 hPa 0,0 l/m 0,0 km/h N 15,8 C 18,7 C 1,2 km/h
17.08.2009 06:00 17,5 C 88 % 1014,5 hPa 0,0 l/m 0,0 km/h N 15,5 C 17,5 C 0,8 km/h
17.08.2009 07:00 19,5 C 85 % 1014,8 hPa 0,0 l/m 0,0 km/h N 16,8 C 19,5 C 0,0 km/h
17.08.2009 08:00 21,5 C 80 % 1015,1 hPa 0,0 l/m 0,0 km/h N 17,8 C 21,5 C 0,0 km/h
17.08.2009 09:00 23,3 C 74 % 1015,1 hPa 0,0 l/m 0,1 km/h N 18,3 C 23,3 C 1,2 km/h
17.08.2009 10:00 25,7 C 67 % 1015,0 hPa 0,0 l/m 0,1 km/h N 19,1 C 25,7 C 1,6 km/h
17.08.2009 11:00 28,1 C 57 % 1014,8 hPa 0,0 l/m 0,4 km/h N 18,6 C 28,1 C 3,6 km/h
17.08.2009 12:00 30,0 C 49 % 1014,5 hPa 0,0 l/m 1,7 km/h NW 17,9 C 30,0 C 6,0 km/h
17.08.2009 13:00 30,9 C 43 % 1014,1 hPa 0,0 l/m 1,3 km/h N-NO 16,9 C 30,9 C 6,0 km/h
17.08.2009 14:00 31,9 C 39 % 1013,7 hPa 0,0 l/m 2,2 km/h O-NO 16,2 C 31,9 C 9,3 km/h
17.08.2009 15:00 31,1 C 42 % 1013,4 hPa 0,0 l/m 2,6 km/h NW 16,6 C 31,1 C 6,4 km/h
17.08.2009 16:00 30,6 C 44 % 1013,2 hPa 0,0 l/m 2,4 km/h W 16,8 C 30,6 C 10,0 km/h
17.08.2009 17:00 30,7 C 43 % 1012,8 hPa 0,0 l/m 2,8 km/h NW 16,6 C 30,7 C 10,5 km/h
17.08.2009 18:00 29,8 C 44 % 1012,5 hPa 0,0 l/m 2,0 km/h SW 16,0 C 29,8 C 8,9 km/h
17.08.2009 19:00 28,2 C 51 % 1012,5 hPa 0,0 l/m 1,6 km/h SW 16,8 C 28,2 C 6,4 km/h
17.08.2009 20:00 25,9 C 57 % 1012,5 hPa 0,0 l/m 1,8 km/h SW 16,5 C 25,9 C 6,8 km/h
17.08.2009 21:00 24,4 C 60 % 1012,7 hPa 0,0 l/m 0,9 km/h S 16,2 C 24,4 C 6,4 km/h
17.08.2009 22:00 22,1 C 70 % 1013,0 hPa 0,0 l/m 0,1 km/h N 16,3 C 22,1 C 1,2 km/h
17.08.2009 23:00 22,6 C 67 % 1013,0 hPa 0,0 l/m 0,3 km/h N 16,0 C 22,6 C 3,2 km/h
18.08.2009 00:00 22,9 C 63 % 1013,0 hPa 0,0 l/m 0,9 km/h SW 15,5 C 22,9 C 5,6 km/h
18.08.2009 01:00 21,2 C 70 % 1013,0 hPa 0,0 l/m 0,1 km/h N 15,4 C 21,2 C 1,6 km/h
18.08.2009 02:00 21,3 C 71 % 1013,3 hPa 0,0 l/m 1,0 km/h N-NW 15,7 C 21,3 C 5,2 km/h
18.08.2009 03:00 21,4 C 69 % 1014,4 hPa 0,0 l/m 0,9 km/h N-NW 15,4 C 21,4 C 4,4 km/h
18.08.2009 04:00 21,1 C 71 % 1014,8 hPa 0,0 l/m 0,0 km/h N 15,5 C 21,1 C 1,6 km/h
18.08.2009 05:00 20,2 C 79 % 1014,5 hPa 0,0 l/m 0,6 km/h S-SO 16,4 C 20,2 C 3,6 km/h
18.08.2009 06:00 22,2 C 66 % 1014,8 hPa 0,0 l/m 2,4 km/h S-SO 15,5 C 22,2 C 13,3 km/h
18.08.2009 07:00 23,5 C 59 % 1015,6 hPa 0,0 l/m 4,0 km/h N-NW 15,1 C 23,5 C 16,1 km/h
18.08.2009 08:00 23,7 C 61 % 1016,4 hPa 0,0 l/m 3,2 km/h NW 15,7 C 23,7 C 10,1 km/h
18.08.2009 09:00 24,3 C 62 % 1016,9 hPa 0,0 l/m 6,4 km/h NW 16,4 C 24,1 C 19,7 km/h
18.08.2009 10:00 24,6 C 63 % 1017,5 hPa 0,0 l/m 6,2 km/h N-NW 17,0 C 24,5 C 16,9 km/h
18.08.2009 11:00 26,0 C 62 % 1017,9 hPa 0,0 l/m 4,7 km/h N-NO 18,1 C 26,0 C 16,1 km/h
18.08.2009 12:00 26,2 C 63 % 1018,1 hPa 0,0 l/m 5,1 km/h N-NW 18,5 C 26,2 C 12,5 km/h
18.08.2009 13:00 26,5 C 62 % 1018,5 hPa 0,0 l/m 5,1 km/h N-NO 18,5 C 26,5 C 13,3 km/h
18.08.2009 14:00 25,5 C 60 % 1018,7 hPa 0,0 l/m 4,8 km/h N-NO 17,2 C 25,5 C 12,1 km/h
18.08.2009 15:00 26,3 C 57 % 1018,5 hPa 0,0 l/m 4,2 km/h N-NO 17,1 C 26,3 C 11,7 km/h
18.08.2009 16:00 26,6 C 56 % 1018,4 hPa 0,0 l/m 4,2 km/h N-NW 17,1 C 26,6 C 9,3 km/h
18.08.2009 17:00 26,2 C 55 % 1018,3 hPa 0,0 l/m 4,1 km/h N-NO 16,3 C 26,2 C 8,9 km/h
18.08.2009 18:00 25,4 C 56 % 1018,2 hPa 0,0 l/m 3,0 km/h N-NW 16,1 C 25,4 C 10,5 km/h
18.08.2009 19:00 24,5 C 58 % 1018,5 hPa 0,0 l/m 0,8 km/h N 15,6 C 24,5 C 4,4 km/h
18.08.2009 20:00 22,5 C 69 % 1019,4 hPa 0,0 l/m 0,0 km/h N 16,4 C 22,5 C 0,8 km/h
18.08.2009 21:00 21,3 C 73 % 1020,3 hPa 0,0 l/m 0,1 km/h N 16,2 C 21,3 C 1,2 km/h
18.08.2009 22:00 20,1 C 77 % 1020,8 hPa 0,0 l/m 0,0 km/h N 15,8 C 20,1 C 0,8 km/h
18.08.2009 23:00 18,5 C 81 % 1021,3 hPa 0,0 l/m 0,0 km/h N 15,2 C 18,5 C 0,4 km/h
19.08.2009 00:00 17,7 C 83 % 1021,6 hPa 0,0 l/m 0,0 km/h N 14,7 C 17,7 C 0,4 km/h
19.08.2009 01:00 17,1 C 84 % 1022,0 hPa 0,0 l/m 0,1 km/h N 14,3 C 17,1 C 1,6 km/h
19.08.2009 02:00 17,0 C 83 % 1022,0 hPa 0,0 l/m 0,4 km/h N 14,1 C 17,0 C 4,0 km/h
19.08.2009 03:00 15,7 C 85 % 1022,3 hPa 0,0 l/m 0,0 km/h N 13,1 C 15,7 C 0,0 km/h
19.08.2009 04:00 15,1 C 86 % 1022,3 hPa 0,0 l/m 0,0 km/h N 12,7 C 15,1 C 0,4 km/h
19.08.2009 05:00 15,1 C 86 % 1022,4 hPa 0,0 l/m 0,0 km/h N 12,8 C 15,1 C 1,6 km/h
19.08.2009 06:00 14,9 C 86 % 1022,7 hPa 0,0 l/m 0,0 km/h N 12,6 C 14,9 C 1,2 km/h
19.08.2009 07:00 15,6 C 83 % 1023,2 hPa 0,0 l/m 0,0 km/h N 12,7 C 15,6 C 0,4 km/h
19.08.2009 08:00 17,8 C 75 % 1023,3 hPa 0,0 l/m 0,0 km/h N 13,4 C 17,8 C 0,0 km/h
19.08.2009 09:00 20,1 C 69 % 1023,6 hPa 0,0 l/m 0,0 km/h N 14,2 C 20,1 C 1,2 km/h
19.08.2009 10:00 21,7 C 61 % 1023,8 hPa 0,0 l/m 0,2 km/h N 13,7 C 21,7 C 3,2 km/h
19.08.2009 11:00 23,7 C 54 % 1023,5 hPa 0,0 l/m 0,6 km/h N 13,6 C 23,7 C 4,0 km/h
19.08.2009 12:00 24,8 C 50 % 1023,4 hPa 0,0 l/m 0,8 km/h SO 13,6 C 24,8 C 4,4 km/h
19.08.2009 13:00 25,5 C 49 % 1023,2 hPa 0,0 l/m 1,4 km/h O-NO 14,0 C 25,5 C 6,0 km/h
19.08.2009 14:00 25,9 C 50 % 1023,0 hPa 0,0 l/m 1,4 km/h O 14,6 C 25,9 C 4,8 km/h
19.08.2009 15:00 26,5 C 47 % 1022,8 hPa 0,0 l/m 1,4 km/h NO 14,2 C 26,5 C 5,2 km/h
19.08.2009 16:00 27,0 C 46 % 1022,6 hPa 0,0 l/m 0,6 km/h N 14,4 C 27,0 C 4,0 km/h
19.08.2009 17:00 26,7 C 48 % 1022,4 hPa 0,0 l/m 0,4 km/h N 14,6 C 26,7 C 2,8 km/h
19.08.2009 18:00 25,9 C 48 % 1022,4 hPa 0,0 l/m 0,6 km/h N 13,8 C 25,9 C 2,4 km/h
19.08.2009 19:00 24,1 C 54 % 1022,4 hPa 0,0 l/m 0,1 km/h N 14,1 C 24,1 C 1,2 km/h
19.08.2009 20:00 21,8 C 65 % 1022,8 hPa 0,0 l/m 0,1 km/h N 14,9 C 21,8 C 2,0 km/h
19.08.2009 21:00 19,6 C 73 % 1023,3 hPa 0,0 l/m 0,0 km/h N 14,7 C 19,6 C 0,4 km/h
19.08.2009 22:00 18,5 C 75 % 1023,5 hPa 0,0 l/m 0,0 km/h N 14,1 C 18,5 C 0,4 km/h
19.08.2009 23:00 17,6 C 78 % 1023,8 hPa 0,0 l/m 0,1 km/h N 13,7 C 17,6 C 1,2 km/h
20.08.2009 00:00 17,3 C 78 % 1024,1 hPa 0,0 l/m 0,2 km/h N 13,4 C 17,3 C 2,4 km/h
20.08.2009 01:00 16,4 C 80 % 1024,3 hPa 0,0 l/m 0,0 km/h N 13,0 C 16,4 C 0,4 km/h
20.08.2009 02:00 15,6 C 80 % 1024,2 hPa 0,0 l/m 0,0 km/h N 12,1 C 15,6 C 1,2 km/h
20.08.2009 03:00 15,1 C 81 % 1024,1 hPa 0,0 l/m 0,0 km/h N 11,8 C 15,1 C 0,8 km/h
20.08.2009 04:00 14,9 C 82 % 1023,9 hPa 0,0 l/m 0,2 km/h N 11,9 C 14,9 C 2,8 km/h
20.08.2009 05:00 14,5 C 83 % 1024,0 hPa 0,0 l/m 0,0 km/h N 11,6 C 14,5 C 1,6 km/h
20.08.2009 06:00 14,0 C 84 % 1024,3 hPa 0,0 l/m 0,0 km/h N 11,4 C 14,0 C 1,6 km/h
20.08.2009 07:00 15,6 C 80 % 1024,4 hPa 0,0 l/m 0,0 km/h N 12,2 C 15,6 C 0,4 km/h
20.08.2009 08:00 17,8 C 75 % 1024,5 hPa 0,0 l/m 0,0 km/h N 13,3 C 17,8 C 0,8 km/h
20.08.2009 09:00 20,1 C 68 % 1024,5 hPa 0,0 l/m 0,3 km/h N 14,0 C 20,1 C 3,2 km/h
20.08.2009 10:00 21,5 C 64 % 1024,3 hPa 0,0 l/m 0,9 km/h O-SO 14,5 C 21,5 C 4,8 km/h
20.08.2009 11:00 23,8 C 56 % 1024,0 hPa 0,0 l/m 1,7 km/h O 14,4 C 23,8 C 5,6 km/h
20.08.2009 12:00 25,3 C 55 % 1023,5 hPa 0,0 l/m 2,0 km/h NO 15,5 C 25,3 C 6,8 km/h
20.08.2009 13:00 26,4 C 52 % 1023,2 hPa 0,0 l/m 2,1 km/h N-NO 15,9 C 26,4 C 9,7 km/h
20.08.2009 14:00 26,7 C 52 % 1022,6 hPa 0,0 l/m 4,1 km/h O 16,1 C 26,7 C 7,5 km/h
20.08.2009 15:00 27,8 C 50 % 1022,0 hPa 0,0 l/m 2,8 km/h O 16,3 C 27,8 C 7,6 km/h
20.08.2009 16:00 28,0 C 49 % 1021,5 hPa 0,0 l/m 3,0 km/h O-SO 16,2 C 28,0 C 7,2 km/h
20.08.2009 17:00 28,0 C 50 % 1021,1 hPa 0,0 l/m 3,1 km/h O 16,6 C 28,0 C 8,4 km/h
20.08.2009 18:00 27,5 C 51 % 1020,5 hPa 0,0 l/m 3,1 km/h O 16,6 C 27,5 C 7,2 km/h
20.08.2009 19:00 26,5 C 55 % 1020,2 hPa 0,0 l/m 0,8 km/h N 16,7 C 26,5 C 3,6 km/h
20.08.2009 20:00 24,3 C 64 % 1020,2 hPa 0,0 l/m 0,1 km/h N 17,0 C 24,3 C 1,2 km/h
20.08.2009 21:00 22,4 C 72 % 1020,5 hPa 0,0 l/m 0,0 km/h N 17,0 C 22,4 C 0,8 km/h
20.08.2009 22:00 19,6 C 82 % 1020,2 hPa 0,0 l/m 0,0 km/h N 16,5 C 19,6 C 0,0 km/h
20.08.2009 23:00 18,5 C 87 % 1019,9 hPa 0,0 l/m 0,0 km/h N 16,2 C 18,5 C 0,0 km/h
21.08.2009 00:00 17,8 C 89 % 1019,5 hPa 0,0 l/m 0,0 km/h N 15,9 C 17,8 C 0,0 km/h
21.08.2009 01:00 17,1 C 91 % 1019,1 hPa 0,0 l/m 0,0 km/h N 15,6 C 17,1 C 0,0 km/h
21.08.2009 02:00 16,6 C 91 % 1018,5 hPa 0,0 l/m 0,0 km/h N 15,2 C 16,6 C 0,4 km/h
21.08.2009 03:00 16,3 C 92 % 1018,3 hPa 0,0 l/m 0,0 km/h N 15,0 C 16,3 C 0,0 km/h
21.08.2009 04:00 16,3 C 92 % 1017,9 hPa 0,0 l/m 0,0 km/h N 15,0 C 16,3 C 0,0 km/h
21.08.2009 05:00 16,2 C 93 % 1017,8 hPa 0,0 l/m 0,0 km/h N 15,0 C 16,2 C 0,0 km/h
21.08.2009 06:00 16,4 C 93 % 1018,1 hPa 0,0 l/m 0,0 km/h N 15,3 C 16,4 C 0,0 km/h
21.08.2009 07:00 18,1 C 91 % 1018,2 hPa 0,0 l/m 0,0 km/h N 16,6 C 18,1 C 0,0 km/h
21.08.2009 08:00 20,2 C 84 % 1018,0 hPa 0,0 l/m 0,1 km/h N 17,3 C 20,2 C 1,6 km/h
21.08.2009 09:00 21,8 C 78 % 1018,1 hPa 0,0 l/m 0,1 km/h N 17,8 C 21,8 C 2,2 km/h
21.08.2009 10:00 23,1 C 73 % 1018,3 hPa 0,0 l/m 0,6 km/h N 18,0 C 23,1 C 3,2 km/h
21.08.2009 11:00 25,3 C 68 % 1018,1 hPa 0,0 l/m 0,3 km/h N 18,8 C 25,3 C 2,8 km/h
21.08.2009 12:00 27,4 C 65 % 1017,5 hPa 0,0 l/m 0,5 km/h N 20,1 C 27,4 C 3,2 km/h
21.08.2009 13:00 28,9 C 57 % 1017,1 hPa 0,0 l/m 1,1 km/h N-NO 19,6 C 28,9 C 5,6 km/h
21.08.2009 14:00 30,0 C 54 % 1016,8 hPa 0,0 l/m 1,4 km/h N-NO 19,6 C 30,0 C 4,4 km/h
21.08.2009 15:00 30,9 C 51 % 1016,5 hPa 0,0 l/m 0,9 km/h N 19,5 C 30,9 C 4,8 km/h
21.08.2009 16:00 30,9 C 50 % 1015,8 hPa 0,0 l/m 1,5 km/h N-NW 19,2 C 30,9 C 4,8 km/h
21.08.2009 17:00 30,5 C 52 % 1015,6 hPa 0,0 l/m 1,7 km/h N-NW 19,6 C 30,5 C 5,6 km/h
21.08.2009 18:00 29,4 C 54 % 1015,8 hPa 0,0 l/m 1,1 km/h N-NW 18,9 C 29,4 C 5,2 km/h
21.08.2009 19:00 26,2 C 67 % 1015,8 hPa 0,0 l/m 0,0 km/h N 19,4 C 26,2 C 0,4 km/h
21.08.2009 20:00 25,6 C 68 % 1016,1 hPa 0,0 l/m 0,8 km/h S-SW 19,3 C 25,6 C 5,2 km/h
21.08.2009 21:00 25,9 C 67 % 1016,5 hPa 0,0 l/m 0,6 km/h SW 19,4 C 25,9 C 5,6 km/h
21.08.2009 22:00 25,2 C 69 % 1016,5 hPa 0,0 l/m 1,0 km/h SW 19,0 C 25,2 C 5,6 km/h
21.08.2009 23:00 25,7 C 62 % 1016,5 hPa 0,0 l/m 5,3 km/h SO 17,9 C 25,6 C 17,7 km/h
22.08.2009 00:00 24,8 C 65 % 1016,1 hPa 0,0 l/m 3,3 km/h NW 17,6 C 24,8 C 15,7 km/h
22.08.2009 01:00 24,0 C 68 % 1016,5 hPa 0,0 l/m 3,5 km/h N-NW 17,7 C 24,0 C 14,9 km/h
22.08.2009 02:00 23,5 C 69 % 1016,8 hPa 0,0 l/m 3,0 km/h S 17,4 C 23,5 C 13,7 km/h
22.08.2009 03:00 23,0 C 71 % 1016,7 hPa 0,0 l/m 0,8 km/h N 17,4 C 23,0 C 7,2 km/h
22.08.2009 04:00 22,4 C 75 % 1016,9 hPa 0,0 l/m 0,7 km/h W-SW 17,7 C 22,4 C 3,2 km/h
22.08.2009 05:00 21,0 C 85 % 1017,6 hPa 1,2 l/m 1,1 km/h N-NW 18,3 C 21,0 C 4,0 km/h
22.08.2009 06:00 19,9 C 90 % 1018,4 hPa 2,4 l/m 0,2 km/h N 18,2 C 19,9 C 1,2 km/h
22.08.2009 07:00 19,8 C 92 % 1018,6 hPa 0,0 l/m 0,0 km/h N 18,5 C 19,8 C 0,8 km/h
22.08.2009 08:00 19,8 C 91 % 1018,6 hPa 0,6 l/m 0,0 km/h N 18,3 C 19,8 C 1,6 km/h
22.08.2009 09:00 20,0 C 89 % 1018,3 hPa 0,3 l/m 0,6 km/h S-SW 18,1 C 20,0 C 3,2 km/h
22.08.2009 10:00 20,8 C 84 % 1018,5 hPa 0,0 l/m 0,5 km/h N 18,1 C 20,8 C 5,6 km/h
22.08.2009 11:00 21,2 C 83 % 1018,8 hPa 0,0 l/m 0,1 km/h NW 18,3 C 21,2 C 2,4 km/h
22.08.2009 12:00 22,0 C 81 % 1018,5 hPa 0,0 l/m 1,3 km/h NW 18,5 C 22,0 C 6,4 km/h
22.08.2009 13:00 23,8 C 74 % 1017,9 hPa 0,0 l/m 4,3 km/h NW 19,0 C 23,8 C 11,3 km/h
22.08.2009 14:00 23,9 C 74 % 1017,7 hPa 0,0 l/m 6,1 km/h N-NO 18,8 C 23,8 C 14,9 km/h
22.08.2009 15:00 22,6 C 75 % 1018,0 hPa 0,0 l/m 5,5 km/h N-NW 17,9 C 22,6 C 13,3 km/h
22.08.2009 16:00 20,8 C 83 % 1018,6 hPa 0,9 l/m 4,4 km/h N-NO 17,8 C 20,8 C 12,1 km/h
22.08.2009 17:00 19,5 C 89 % 1018,8 hPa 0,9 l/m 3,9 km/h NW 17,6 C 19,5 C 10,1 km/h
22.08.2009 18:00 19,3 C 87 % 1019,2 hPa 0,0 l/m 3,7 km/h N-NW 17,1 C 19,3 C 8,8 km/h
22.08.2009 19:00 19,0 C 89 % 1019,8 hPa 0,9 l/m 3,3 km/h N-NW 17,1 C 19,0 C 8,1 km/h
22.08.2009 20:00 18,2 C 89 % 1020,5 hPa 0,3 l/m 2,6 km/h N-NW 16,4 C 18,2 C 7,6 km/h
22.08.2009 21:00 18,0 C 89 % 1021,0 hPa 0,3 l/m 2,5 km/h N-NW 16,2 C 18,0 C 6,8 km/h
22.08.2009 22:00 17,5 C 90 % 1021,2 hPa 0,0 l/m 2,8 km/h N-NW 15,8 C 17,5 C 9,3 km/h
22.08.2009 23:00 17,1 C 88 % 1021,4 hPa 0,0 l/m 3,5 km/h N-NW 15,1 C 17,1 C 8,9 km/h
23.08.2009 00:00 16,8 C 89 % 1021,8 hPa 0,0 l/m 2,7 km/h NW 14,9 C 16,8 C 9,3 km/h
23.08.2009 01:00 16,3 C 89 % 1021,9 hPa 0,6 l/m 2,7 km/h NW 14,5 C 16,3 C 10,1 km/h
23.08.2009 02:00 16,0 C 90 % 1021,8 hPa 0,3 l/m 3,5 km/h NW 14,3 C 16,0 C 10,9 km/h
23.08.2009 03:00 16,1 C 88 % 1021,9 hPa 0,0 l/m 4,3 km/h NW 14,0 C 16,1 C 11,7 km/h
23.08.2009 04:00 15,9 C 87 % 1022,0 hPa 0,0 l/m 2,7 km/h NW 13,7 C 15,9 C 8,9 km/h
23.08.2009 05:00 15,7 C 86 % 1021,8 hPa 0,0 l/m 1,3 km/h N-NW 13,4 C 15,7 C 6,0 km/h
23.08.2009 06:00 15,8 C 87 % 1021,7 hPa 0,0 l/m 1,9 km/h N-NW 13,6 C 15,8 C 7,2 km/h
23.08.2009 07:00 16,3 C 86 % 1022,1 hPa 0,0 l/m 3,3 km/h NW 14,0 C 16,3 C 8,4 km/h
23.08.2009 08:00 17,0 C 84 % 1022,4 hPa 0,0 l/m 3,1 km/h NW 14,2 C 17,0 C 9,7 km/h
23.08.2009 09:00 16,9 C 84 % 1022,8 hPa 0,0 l/m 3,0 km/h NW 14,2 C 16,9 C 9,7 km/h
23.08.2009 10:00 17,6 C 83 % 1023,0 hPa 0,0 l/m 3,5 km/h NW 14,7 C 17,6 C 9,3 km/h
23.08.2009 11:00 19,4 C 77 % 1022,9 hPa 0,0 l/m 4,5 km/h N-NO 15,1 C 19,4 C 11,3 km/h
23.08.2009 12:00 20,8 C 66 % 1022,6 hPa 0,0 l/m 5,8 km/h N-NO 14,2 C 20,7 C 16,5 km/h
23.08.2009 13:00 21,4 C 61 % 1022,3 hPa 0,0 l/m 6,3 km/h N-NW 13,4 C 21,3 C 15,7 km/h
23.08.2009 14:00 22,4 C 57 % 1021,7 hPa 0,0 l/m 6,8 km/h N-NO 13,5 C 22,2 C 17,3 km/h
23.08.2009 15:00 22,8 C 55 % 1021,1 hPa 0,0 l/m 7,0 km/h N-NW 13,3 C 22,6 C 17,7 km/h
23.08.2009 16:00 23,0 C 53 % 1020,9 hPa 0,0 l/m 5,9 km/h N-NW 12,9 C 23,0 C 16,1 km/h
23.08.2009 17:00 22,4 C 53 % 1020,7 hPa 0,0 l/m 5,0 km/h N-NO 12,2 C 22,4 C 14,5 km/h
23.08.2009 18:00 21,7 C 51 % 1020,4 hPa 0,0 l/m 4,8 km/h NO 11,2 C 21,7 C 11,7 km/h
23.08.2009 19:00 21,0 C 52 % 1020,5 hPa 0,0 l/m 3,6 km/h NO 10,8 C 21,0 C 8,9 km/h
23.08.2009 20:00 18,7 C 62 % 1020,7 hPa 0,0 l/m 0,6 km/h N 11,2 C 18,7 C 3,2 km/h
23.08.2009 21:00 16,6 C 72 % 1020,9 hPa 0,0 l/m 0,0 km/h N 11,6 C 16,6 C 0,4 km/h
23.08.2009 22:00 15,5 C 77 % 1020,9 hPa 0,0 l/m 0,0 km/h N 11,5 C 15,5 C 0,8 km/h
23.08.2009 23:00 14,8 C 79 % 1020,7 hPa 0,0 l/m 0,0 km/h N 11,1 C 14,8 C 2,0 km/h
Min-Datum _ 20.08.09 17.08.09 17.08.09 - 17.08.09 - 23.08.09 20.08.09 17.08.09
_ Min-Zeit 06:15 15:15 18:45 - 00:00 - 20:00 06:00 01:30
Minimum _ 13,6 C 37 % 1012,4 hPa - 0,0 km/h - 10,7 C 13,7 C 0,0 km/h
Max-Datum _ 17.08.09 21.08.09 20.08.09 22.08.09 18.08.09 - 21.08.09 17.08.09 18.08.09
_ Max-Zeit 14:45 05:30 08:00 06:15 09:15 - 12:30 14:45 09:30
Maximum _ 32,6 C 93 % 1024,7 hPa 2,4 l/m 7,7 km/h
NW
- 21,0 C 32,6 C 22,5 km/h
N-NW
Durchschnitt _ 21,8 C 70 % 1019,2 hPa #8,7 l/m 1,6 km/h N-NW 15,8 C 21,8 C 5,7 km/h